Time;durP1;ratioP1;P1;durP2;ratioP2;P2;SDS_P1;SDS_P2;PMS_P1;PMS_P2;Temp;Humidity;BMP_temperature;BMP_pressure;BME280_temperature;BME280_humidity;BME280_pressure;Samples;Min_cycle;Max_cycle;Signal;HPM_P1;HPM_P2
2022/05/10 00:02:08;;;;;;;;;;;17.10;99.90;;;;;;4735881;30;19940;-78
2022/05/10 00:04:34;;;;;;;;;;;17.00;99.90;;;;;;4789607;29;19924;-78
2022/05/10 00:07:12;;;;;;;;;;;17.00;99.90;;;;;;4873188;29;19915;-79
2022/05/10 00:09:51;;;;;;;;;;;17.00;99.90;;;;;;4985723;28;19941;-79
2022/05/10 00:12:17;;;;;;;;;;;17.20;99.90;;;;;;4998485;28;19920;-78
2022/05/10 00:14:52;;;;;;;;;;;17.20;99.90;;;;;;5011180;28;19914;-78
2022/05/10 00:17:31;;;;;;;;;;;17.10;99.90;;;;;;5016234;28;19937;-79
2022/05/10 00:23:12;;;;;;;;;;;17.00;99.90;;;;;;4993345;28;19914;-78
2022/05/10 00:25:41;;;;;;;;;;;17.00;99.90;;;;;;4998481;28;19994;-79
2022/05/10 00:28:17;;;;;;;;;;;17.10;99.90;;;;;;5016319;28;20379;-81
2022/05/10 00:30:59;;;;;;;;;;;17.10;99.90;;;;;;4999288;28;19916;-79
2022/05/10 00:33:37;;;;;;;;;;;17.30;99.90;;;;;;5016544;28;19940;-78
2022/05/10 00:36:12;;;;;;;;;;;17.70;99.90;;;;;;5002800;28;20010;-79
2022/05/10 00:38:39;;;;;;;;;;;17.80;99.90;;;;;;5015416;28;19924;-79
2022/05/10 00:44:51;;;;;;;;;;;17.90;99.90;;;;;;4997282;28;19914;-79
2022/05/10 00:47:35;;;;;;;;;;;17.90;99.90;;;;;;4996489;28;19914;-80
2022/05/10 00:50:19;;;;;;;;;;;18.00;99.90;;;;;;5011015;28;20260;-78
2022/05/10 00:52:56;;;;;;;;;;;18.10;99.90;;;;;;5016509;28;19972;-77
2022/05/10 00:55:22;;;;;;;;;;;18.10;99.90;;;;;;5016154;28;19968;-77
2022/05/10 00:58:17;;;;;;;;;;;18.10;99.90;;;;;;5014896;28;19918;-78
2022/05/10 01:00:55;;;;;;;;;;;18.00;99.90;;;;;;4994966;28;19920;-79
2022/05/10 01:03:38;;;;;;;;;;;18.00;99.90;;;;;;4996450;28;19921;-80
2022/05/10 01:06:07;;;;;;;;;;;18.00;99.90;;;;;;5015229;28;19914;-77
2022/05/10 01:08:54;;;;;;;;;;;18.00;99.90;;;;;;5012186;28;20283;-78
2022/05/10 01:11:23;;;;;;;;;;;18.00;99.90;;;;;;5014825;28;19914;-78
2022/05/10 01:14:10;;;;;;;;;;;18.00;99.90;;;;;;5015235;28;20037;-77
2022/05/10 01:16:36;;;;;;;;;;;18.00;99.90;;;;;;5016033;28;19921;-78
2022/05/10 01:19:04;;;;;;;;;;;18.10;99.90;;;;;;5012839;28;20279;-77
2022/05/10 01:21:49;;;;;;;;;;;18.10;99.90;;;;;;4998652;28;20318;-78
2022/05/10 01:24:40;;;;;;;;;;;;;;;;;;;;;
2022/05/10 01:27:18;;;;;;;;;;;18.00;99.90;;;;;;4999309;28;19924;-78
2022/05/10 01:29:53;;;;;;;;;;;18.00;99.90;;;;;;5015339;28;19960;-78
2022/05/10 01:39:22;;;;;;;;;;;;;;;;;;;;;
2022/05/10 01:42:14;;;;;;;;;;;18.10;99.90;;;;;;5024177;28;19964;-76
2022/05/10 01:48:28;;;;;;;;;;;;;;;;;;;;;
2022/05/10 01:51:16;;;;;;;;;;;18.10;99.90;;;;;;4989366;28;19952;-78
2022/05/10 01:55:01;;;;;;;;;;;18.20;99.90;;;;;;5009081;28;19913;-81
2022/05/10 02:00:11;;;;;;;;;;;;;;;;;;;;;
2022/05/10 02:03:01;;;;;;;;;;;18.20;99.90;;;;;;4949266;29;20121;-77
2022/05/10 02:05:53;;;;;;;;;;;18.10;99.90;;;;;;5018983;28;20086;-78
2022/05/10 02:08:44;;;;;;;;;;;18.20;99.90;;;;;;4935693;29;19915;-78
2022/05/10 02:14:41;;;;;;;;;;;18.10;99.90;;;;;;4935141;29;19947;-78
2022/05/10 02:35:49;;;;;;;;;;;18.10;99.90;;;;;;4871973;29;19999;-78
2022/05/10 02:38:37;;;;;;;;;;;;;;;;;;;;;
2022/05/10 03:05:42;;;;;;;;;;;18.10;99.90;;;;;;4901127;29;19939;-78
2022/05/10 03:08:13;;;;;;;;;;;18.10;99.90;;;;;;4950548;29;20467;-77
2022/05/10 03:19:26;;;;;;;;;;;17.90;99.90;;;;;;4944211;28;20021;-78
2022/05/10 03:25:30;;;;;;;;;;;17.90;99.90;;;;;;4913689;29;20011;-78
2022/05/10 03:31:25;;;;;;;;;;;17.80;99.90;;;;;;4878717;29;19916;-77
2022/05/10 03:36:38;;;;;;;;;;;17.70;99.90;;;;;;4915490;29;19997;-78
2022/05/10 03:39:12;;;;;;;;;;;17.70;99.90;;;;;;4951620;28;20443;-80
2022/05/10 03:42:13;;;;;;;;;;;17.70;99.90;;;;;;4960493;28;19962;-77
2022/05/10 03:45:11;;;;;;;;;;;;;;;;;;;;;
2022/05/10 03:50:58;;;;;;;;;;;17.50;99.90;;;;;;4957468;28;20394;-78
2022/05/10 03:53:38;;;;;;;;;;;17.50;99.90;;;;;;4961407;28;19918;-78
2022/05/10 03:56:35;;;;;;;;;;;17.60;99.90;;;;;;5004114;28;20394;-79
2022/05/10 03:59:01;;;;;;;;;;;17.50;99.90;;;;;;5006678;28;19949;-80
2022/05/10 04:01:30;;;;;;;;;;;17.50;99.90;;;;;;5013280;28;19909;-78
2022/05/10 04:04:03;;;;;;;;;;;17.60;99.90;;;;;;5015405;28;20021;-79
2022/05/10 04:09:47;;;;;;;;;;;17.60;99.90;;;;;;5003535;28;19960;-77
2022/05/10 04:12:17;;;;;;;;;;;17.60;99.90;;;;;;5012739;28;19941;-77
2022/05/10 04:15:08;;;;;;;;;;;17.60;99.90;;;;;;5012633;28;19917;-79
2022/05/10 04:18:05;;;;;;;;;;;17.60;99.90;;;;;;4979749;28;19914;-77
2022/05/10 04:20:49;;;;;;;;;;;17.50;99.90;;;;;;5011932;28;19917;-78
2022/05/10 04:23:20;;;;;;;;;;;17.60;99.90;;;;;;5010696;28;19913;-79
2022/05/10 04:26:07;;;;;;;;;;;17.60;99.90;;;;;;5004033;28;19921;-77
2022/05/10 04:28:39;;;;;;;;;;;17.70;99.90;;;;;;5009789;28;19994;-79
2022/05/10 04:31:30;;;;;;;;;;;17.70;99.90;;;;;;5012366;28;19910;-79
2022/05/10 04:34:04;;;;;;;;;;;17.70;99.90;;;;;;5009567;28;20360;-79
2022/05/10 04:36:30;;;;;;;;;;;17.70;99.90;;;;;;5008256;28;19909;-78
2022/05/10 04:50:56;;;;;;;;;;;17.90;99.90;;;;;;5010014;28;19972;-77
2022/05/10 04:53:32;;;;;;;;;;;18.00;99.90;;;;;;5015972;28;19917;-79
2022/05/10 04:56:42;;;;;;;;;;;18.20;99.90;;;;;;5012324;28;19921;-77
2022/05/10 04:59:13;;;;;;;;;;;18.20;99.90;;;;;;4998809;28;19921;-78
2022/05/10 05:02:06;;;;;;;;;;;18.30;99.90;;;;;;4988177;28;19929;-80
2022/05/10 05:07:53;;;;;;;;;;;18.50;99.90;;;;;;5016758;28;19937;-79
2022/05/10 05:13:38;;;;;;;;;;;18.60;99.90;;;;;;4956738;28;20012;-78
2022/05/10 05:16:24;;;;;;;;;;;18.70;99.90;;;;;;5012536;28;19921;-78
2022/05/10 05:18:52;;;;;;;;;;;18.80;99.90;;;;;;5015062;28;20020;-79
2022/05/10 05:21:27;;;;;;;;;;;18.90;99.90;;;;;;5016365;28;19914;-78
2022/05/10 05:27:32;;;;;;;;;;;18.90;99.90;;;;;;5015845;28;19924;-79
2022/05/10 05:30:00;;;;;;;;;;;19.10;99.90;;;;;;5004872;28;19921;-78
2022/05/10 05:32:51;;;;;;;;;;;19.10;99.90;;;;;;4999326;28;19929;-79
2022/05/10 05:35:28;;;;;;;;;;;19.20;99.90;;;;;;5013747;28;19920;-80
2022/05/10 05:41:09;;;;;;;;;;;19.30;99.90;;;;;;4987039;28;19920;-82
2022/05/10 05:43:54;;;;;;;;;;;19.40;99.90;;;;;;5014929;28;19936;-78
2022/05/10 05:47:03;;;;;;;;;;;19.50;99.90;;;;;;5015033;28;19960;-79
2022/05/10 05:50:43;;;;;;;;;;;;;;;;;;;;;
2022/05/10 05:56:09;;;;;;;;;;;19.60;99.90;;;;;;4885588;29;19919;-78
2022/05/10 05:58:35;;;;;;;;;;;19.70;99.90;;;;;;4879485;29;19938;-78
2022/05/10 06:01:11;;;;;;;;;;;19.70;99.90;;;;;;4911769;29;19915;-78
2022/05/10 06:06:50;;;;;;;;;;;;;;;;;;;;;
2022/05/10 06:09:22;;;;;;;;;;;19.80;99.90;;;;;;4932316;29;20016;-77
2022/05/10 06:18:15;;;;;;;;;;;20.20;99.90;;;;;;4914839;29;19994;-76
2022/05/10 06:21:18;;;;;;;;;;;;;;;;;;;;;
2022/05/10 06:23:44;;;;;;;;;;;20.40;99.90;;;;;;4971609;28;19986;-78
2022/05/10 06:36:13;;;;;;;;;;;;;;;;;;;;;
2022/05/10 06:45:38;;;;;;;;;;;;;;;;;;;;;
2022/05/10 06:54:54;;;;;;;;;;;21.30;99.90;;;;;;4784728;30;19967;-78
2022/05/10 06:57:34;;;;;;;;;;;21.40;99.90;;;;;;4784414;29;19917;-80
2022/05/10 07:06:44;;;;;;;;;;;21.60;99.90;;;;;;4816528;29;20454;-79
2022/05/10 07:09:10;;;;;;;;;;;21.60;99.90;;;;;;4814957;29;19924;-78
2022/05/10 07:11:39;;;;;;;;;;;21.70;99.90;;;;;;4810615;29;19913;-77
2022/05/10 07:14:21;;;;;;;;;;;;;;;;;;;;;
2022/05/10 07:20:22;;;;;;;;;;;;;;;;;;;;;
2022/05/10 07:25:52;;;;;;;;;;;22.10;99.90;;;;;;5015247;28;20442;-80
2022/05/10 08:11:17;;;;;;;;;;;23.50;99.90;;;;;;4916664;28;20397;-78
2022/05/10 08:14:01;;;;;;;;;;;23.00;99.90;;;;;;4978198;28;19917;-78
2022/05/10 08:17:02;;;;;;;;;;;22.60;99.90;;;;;;4998942;28;19914;-78
2022/05/10 08:19:27;;;;;;;;;;;22.40;99.90;;;;;;4981259;28;20102;-79
2022/05/10 08:21:56;;;;;;;;;;;22.30;99.90;;;;;;5020894;28;19913;-79
2022/05/10 08:24:34;;;;;;;;;;;22.20;99.90;;;;;;5015169;28;19914;-79
2022/05/10 08:27:00;;;;;;;;;;;22.20;99.90;;;;;;5020280;28;19917;-78
2022/05/10 08:29:25;;;;;;;;;;;22.10;99.90;;;;;;5018743;28;19917;-78
2022/05/10 08:31:51;;;;;;;;;;;22.10;99.90;;;;;;5016954;28;19980;-78
2022/05/10 08:34:19;;;;;;;;;;;22.20;99.90;;;;;;5017916;28;19972;-78
2022/05/10 08:36:46;;;;;;;;;;;22.20;99.90;;;;;;5015187;28;19910;-78
2022/05/10 08:39:13;;;;;;;;;;;22.20;99.90;;;;;;5016856;28;19913;-79
2022/05/10 08:41:48;;;;;;;;;;;22.00;99.90;;;;;;5015331;28;19987;-76
2022/05/10 08:44:15;;;;;;;;;;;21.90;99.90;;;;;;5012319;28;19917;-77
2022/05/10 08:53:24;;;;;;;;;;;21.90;99.90;;;;;;4828751;29;20026;-76
2022/05/10 08:59:22;;;;;;;;;;;22.10;99.90;;;;;;4898340;29;19923;-76
2022/05/10 09:02:05;;;;;;;;;;;22.10;99.90;;;;;;4947054;29;19954;-77
2022/05/10 09:05:11;;;;;;;;;;;22.20;99.90;;;;;;4945291;28;19915;-76
2022/05/10 09:14:21;;;;;;;;;;;;;;;;;;;;;
2022/05/10 09:16:59;;;;;;;;;;;22.10;99.90;;;;;;4907157;29;20014;-77
2022/05/10 09:19:30;;;;;;;;;;;22.00;99.90;;;;;;4938210;29;19914;-77
2022/05/10 09:22:22;;;;;;;;;;;22.00;99.90;;;;;;5016740;28;19925;-74
2022/05/10 09:25:10;;;;;;;;;;;22.00;99.90;;;;;;5002375;28;20010;-78
2022/05/10 09:27:37;;;;;;;;;;;22.20;99.90;;;;;;5025043;28;19914;-78
2022/05/10 09:36:29;;;;;;;;;;;22.40;99.90;;;;;;5003211;28;19932;-78
2022/05/10 09:39:23;;;;;;;;;;;22.40;99.90;;;;;;5018504;28;19913;-77
2022/05/10 09:48:23;;;;;;;;;;;;;;;;;;;;;
2022/05/10 09:51:24;;;;;;;;;;;22.80;99.90;;;;;;4951746;29;20005;-79
2022/05/10 09:53:51;;;;;;;;;;;22.90;99.90;;;;;;4934718;29;20009;-75
2022/05/10 09:56:53;;;;;;;;;;;23.00;99.90;;;;;;4987347;28;19914;-78
2022/05/10 09:59:28;;;;;;;;;;;23.00;99.90;;;;;;4949087;29;19998;-76
2022/05/10 10:02:17;;;;;;;;;;;22.90;99.90;;;;;;4995232;28;19910;-75
2022/05/10 10:04:55;;;;;;;;;;;;;;;;;;;;;
2022/05/10 10:07:22;;;;;;;;;;;22.90;99.90;;;;;;5023646;28;19973;-75
2022/05/10 10:09:51;;;;;;;;;;;22.90;99.90;;;;;;5013461;28;19979;-75
2022/05/10 10:12:32;;;;;;;;;;;22.90;99.90;;;;;;5015331;28;19913;-75
2022/05/10 10:14:58;;;;;;;;;;;22.70;99.90;;;;;;5016410;28;19917;-76
2022/05/10 10:17:28;;;;;;;;;;;22.70;99.90;;;;;;4998652;28;20383;-75
2022/05/10 10:20:12;;;;;;;;;;;22.70;99.90;;;;;;4998746;28;20387;-78
2022/05/10 10:22:44;;;;;;;;;;;22.80;99.90;;;;;;4999142;28;19913;-75
2022/05/10 10:25:16;;;;;;;;;;;22.70;99.90;;;;;;5015371;28;19939;-77
2022/05/10 10:27:50;;;;;;;;;;;22.80;99.90;;;;;;5012726;28;19920;-78
2022/05/10 10:30:34;;;;;;;;;;;22.90;99.90;;;;;;5008564;28;19937;-75
2022/05/10 10:33:08;;;;;;;;;;;22.90;99.90;;;;;;5012080;28;19918;-76
2022/05/10 10:35:42;;;;;;;;;;;22.90;99.90;;;;;;4995903;28;19945;-76
2022/05/10 10:38:26;;;;;;;;;;;23.10;99.90;;;;;;5007545;28;19922;-75
2022/05/10 10:41:12;;;;;;;;;;;23.00;99.90;;;;;;5025242;28;19913;-75
2022/05/10 10:44:00;;;;;;;;;;;23.00;99.90;;;;;;4988733;28;19925;-75
2022/05/10 10:46:28;;;;;;;;;;;22.90;99.90;;;;;;5010823;28;19915;-77
2022/05/10 10:48:55;;;;;;;;;;;23.00;99.90;;;;;;5010151;28;19948;-76
2022/05/10 10:51:23;;;;;;;;;;;22.90;99.90;;;;;;5013739;28;19925;-76
2022/05/10 10:54:22;;;;;;;;;;;23.00;99.90;;;;;;5009478;28;20012;-76
2022/05/10 11:00:13;;;;;;;;;;;22.90;99.90;;;;;;4913853;29;20428;-76
2022/05/10 11:02:57;;;;;;;;;;;22.80;99.90;;;;;;4916264;29;19919;-76
2022/05/10 11:05:30;;;;;;;;;;;23.00;99.90;;;;;;4915112;29;20305;-75
2022/05/10 11:08:15;;;;;;;;;;;23.20;99.90;;;;;;4916113;29;19919;-70
2022/05/10 11:17:13;;;;;;;;;;;23.30;99.90;;;;;;4916649;29;20077;-68
2022/05/10 11:19:48;;;;;;;;;;;23.20;99.90;;;;;;5005876;28;20339;-70
2022/05/10 11:22:26;;;;;;;;;;;23.20;99.90;;;;;;4995029;28;19914;-70
2022/05/10 11:25:29;;;;;;;;;;;23.10;99.90;;;;;;5010509;28;20368;-70
2022/05/10 11:28:17;;;;;;;;;;;23.20;99.90;;;;;;5012634;28;20324;-72
2022/05/10 11:31:04;;;;;;;;;;;23.30;99.90;;;;;;5011217;28;19973;-71
2022/05/10 11:33:51;;;;;;;;;;;;;;;;;;;;;
2022/05/10 11:36:35;;;;;;;;;;;23.30;99.90;;;;;;5008714;28;19922;-71
2022/05/10 11:39:04;;;;;;;;;;;23.10;99.90;;;;;;5010737;28;19932;-71
2022/05/10 11:41:29;;;;;;;;;;;23.20;99.90;;;;;;5006943;28;20383;-72
2022/05/10 11:44:04;;;;;;;;;;;23.20;99.90;;;;;;5013027;28;19924;-71
2022/05/10 11:46:44;;;;;;;;;;;23.30;99.90;;;;;;5001680;28;19921;-73
2022/05/10 11:49:39;;;;;;;;;;;23.40;99.90;;;;;;5009150;28;20335;-70
2022/05/10 11:52:15;;;;;;;;;;;23.40;99.90;;;;;;4995537;28;20008;-69
2022/05/10 11:54:56;;;;;;;;;;;23.30;99.90;;;;;;4992340;28;19924;-71
2022/05/10 11:57:25;;;;;;;;;;;23.20;99.90;;;;;;5011894;28;20410;-70
2022/05/10 11:59:51;;;;;;;;;;;23.30;99.90;;;;;;5002559;28;19917;-70
2022/05/10 12:05:23;;;;;;;;;;;23.50;99.90;;;;;;5009694;28;19941;-70
2022/05/10 12:07:55;;;;;;;;;;;23.50;99.90;;;;;;4992189;28;19947;-70
2022/05/10 12:10:52;;;;;;;;;;;23.30;99.90;;;;;;4994789;28;19925;-74
2022/05/10 12:35:21;;;;;;;;;;;22.50;99.90;;;;;;4986751;28;20020;-71
2022/05/10 12:41:02;;;;;;;;;;;22.40;99.90;;;;;;4949901;29;19921;-74
2022/05/10 12:43:38;;;;;;;;;;;22.30;99.90;;;;;;5006719;28;19922;-72
2022/05/10 12:46:17;;;;;;;;;;;22.10;99.90;;;;;;5010781;28;19914;-72
2022/05/10 12:48:43;;;;;;;;;;;22.10;99.90;;;;;;4994164;28;19957;-72
2022/05/10 12:51:15;;;;;;;;;;;22.00;99.90;;;;;;5012003;28;19913;-72
2022/05/10 12:53:48;;;;;;;;;;;21.70;99.90;;;;;;5012334;28;19920;-72
2022/05/10 12:59:34;;;;;;;;;;;21.80;99.90;;;;;;4991797;28;19913;-72
2022/05/10 13:01:59;;;;;;;;;;;21.90;99.90;;;;;;5011850;28;19909;-73
2022/05/10 13:04:40;;;;;;;;;;;21.80;99.90;;;;;;5015493;28;19915;-73
2022/05/10 13:07:12;;;;;;;;;;;21.60;99.90;;;;;;4994436;28;19918;-71
2022/05/10 13:09:52;;;;;;;;;;;21.70;99.90;;;;;;4998786;28;20042;-72
2022/05/10 13:12:28;;;;;;;;;;;21.70;99.90;;;;;;5015993;28;19913;-72
2022/05/10 13:14:59;;;;;;;;;;;21.50;99.90;;;;;;5014817;28;20397;-71
2022/05/10 13:17:26;;;;;;;;;;;21.50;99.90;;;;;;5012290;28;20244;-73
2022/05/10 13:19:52;;;;;;;;;;;21.60;99.90;;;;;;5012457;28;21383;-73
2022/05/10 13:22:18;;;;;;;;;;;21.50;99.90;;;;;;5016987;28;19976;-72
2022/05/10 13:24:55;;;;;;;;;;;21.50;99.90;;;;;;5009817;28;19971;-73
2022/05/10 13:27:26;;;;;;;;;;;21.60;99.90;;;;;;5013763;28;19948;-73
2022/05/10 13:29:53;;;;;;;;;;;21.40;99.90;;;;;;5014945;28;19921;-72
2022/05/10 13:32:33;;;;;;;;;;;21.40;99.90;;;;;;5017215;28;20296;-73
2022/05/10 13:35:06;;;;;;;;;;;21.40;99.90;;;;;;5017464;28;19997;-73
2022/05/10 13:37:34;;;;;;;;;;;21.50;99.90;;;;;;5021559;28;20318;-73
2022/05/10 13:40:09;;;;;;;;;;;21.80;99.90;;;;;;5012859;28;20383;-72
2022/05/10 13:42:42;;;;;;;;;;;21.90;99.90;;;;;;5021910;28;19925;-72
2022/05/10 13:45:09;;;;;;;;;;;22.00;99.90;;;;;;4998093;28;19925;-71
2022/05/10 13:47:48;;;;;;;;;;;22.00;99.90;;;;;;5015454;28;20287;-72
2022/05/10 13:50:26;;;;;;;;;;;22.30;99.90;;;;;;5014052;28;20292;-71
2022/05/10 13:52:57;;;;;;;;;;;22.50;99.90;;;;;;5010626;28;19960;-74
2022/05/10 13:55:36;;;;;;;;;;;22.70;99.90;;;;;;5007005;28;19909;-73
2022/05/10 13:58:04;;;;;;;;;;;22.90;99.90;;;;;;5010506;28;19913;-74
2022/05/10 14:01:22;;;;;;;;;;;;;;;;;;;;;
2022/05/10 14:03:48;;;;;;;;;;;22.90;99.90;;;;;;5013965;28;19985;-74
2022/05/10 14:06:19;;;;;;;;;;;22.60;99.90;;;;;;5008806;28;20004;-73
2022/05/10 14:08:45;;;;;;;;;;;22.40;99.90;;;;;;4992126;28;20622;-72
2022/05/10 14:11:13;;;;;;;;;;;22.50;99.90;;;;;;4997296;28;20318;-71
2022/05/10 14:13:47;;;;;;;;;;;22.60;99.90;;;;;;5011013;28;19963;-70
2022/05/10 14:16:13;;;;;;;;;;;22.80;99.90;;;;;;5005290;28;19917;-72
2022/05/10 14:18:44;;;;;;;;;;;22.60;99.90;;;;;;5012156;28;20333;-72
2022/05/10 14:21:22;;;;;;;;;;;22.60;99.90;;;;;;5028128;28;20391;-72
2022/05/10 14:23:48;;;;;;;;;;;22.50;99.90;;;;;;5019001;28;19933;-73
2022/05/10 14:26:33;;;;;;;;;;;22.50;99.90;;;;;;5012630;28;19918;-72
2022/05/10 14:29:07;;;;;;;;;;;22.60;99.90;;;;;;5014078;28;19914;-73
2022/05/10 14:31:35;;;;;;;;;;;22.60;99.90;;;;;;5014976;28;19916;-72
2022/05/10 14:34:02;;;;;;;;;;;22.60;99.90;;;;;;4978073;28;19918;-76
2022/05/10 14:36:29;;;;;;;;;;;22.70;99.90;;;;;;4996033;28;19910;-72
2022/05/10 14:38:56;;;;;;;;;;;22.90;99.90;;;;;;5014024;28;19932;-73
2022/05/10 14:41:29;;;;;;;;;;;23.10;99.90;;;;;;5012761;28;19968;-72
2022/05/10 14:43:55;;;;;;;;;;;23.20;99.90;;;;;;5012460;28;20398;-72
2022/05/10 14:46:27;;;;;;;;;;;23.30;99.90;;;;;;4996392;28;19917;-73
2022/05/10 14:49:07;;;;;;;;;;;23.60;99.90;;;;;;5014869;28;20307;-72
2022/05/10 14:51:40;;;;;;;;;;;23.80;99.90;;;;;;5014693;28;20367;-73
2022/05/10 14:54:07;;;;;;;;;;;23.80;99.90;;;;;;5014302;28;19913;-73
2022/05/10 14:57:07;;;;;;;;;;;24.00;99.90;;;;;;5013757;28;19913;-72
2022/05/10 14:59:51;;;;;;;;;;;24.00;99.90;;;;;;4960730;28;19941;-72
2022/05/10 15:02:37;;;;;;;;;;;23.90;99.90;;;;;;5014072;28;19918;-72
2022/05/10 15:05:10;;;;;;;;;;;24.00;99.90;;;;;;5013952;28;19909;-72
2022/05/10 15:07:36;;;;;;;;;;;23.80;99.90;;;;;;5014495;28;20372;-72
2022/05/10 15:10:02;;;;;;;;;;;23.60;99.90;;;;;;5011978;28;19914;-73
2022/05/10 15:15:29;;;;;;;;;;;23.00;99.90;;;;;;4937059;29;19929;-71
2022/05/10 15:20:38;;;;;;;;;;;22.50;99.90;;;;;;5013700;28;20302;-72
2022/05/10 15:23:04;;;;;;;;;;;22.30;99.90;;;;;;5012738;28;19913;-72
2022/05/10 15:25:30;;;;;;;;;;;22.00;99.90;;;;;;5009914;28;19913;-72
2022/05/10 15:27:56;;;;;;;;;;;21.90;99.90;;;;;;5013284;28;19928;-72
2022/05/10 15:30:22;;;;;;;;;;;21.80;99.90;;;;;;5012338;28;20383;-73
2022/05/10 15:32:48;;;;;;;;;;;21.60;99.90;;;;;;5013404;28;19917;-73
2022/05/10 15:35:13;;;;;;;;;;;21.70;99.90;;;;;;5011235;28;19913;-73
2022/05/10 15:37:39;;;;;;;;;;;21.90;99.90;;;;;;5017383;28;19951;-73
2022/05/10 15:40:05;;;;;;;;;;;22.10;99.90;;;;;;4996671;28;20382;-73
2022/05/10 15:42:32;;;;;;;;;;;22.30;99.90;;;;;;4991836;28;19980;-72
2022/05/10 15:44:59;;;;;;;;;;;22.50;99.90;;;;;;5012657;28;20402;-73
2022/05/10 15:47:29;;;;;;;;;;;22.70;99.90;;;;;;5013696;28;19917;-73
2022/05/10 15:49:55;;;;;;;;;;;22.60;99.90;;;;;;5018008;28;19913;-73
2022/05/10 15:52:21;;;;;;;;;;;22.40;99.90;;;;;;5021193;28;20363;-72
2022/05/10 15:58:50;;;;;;;;;;;;;;;;;;;;;
2022/05/10 16:10:53;;;;;;;;;;;23.00;99.90;;;;;;4929038;29;19948;-72
2022/05/10 16:13:18;;;;;;;;;;;23.20;99.90;;;;;;4921218;29;20100;-72
2022/05/10 16:19:13;;;;;;;;;;;;;;;;;;;;;
2022/05/10 16:24:42;;;;;;;;;;;23.20;99.90;;;;;;4921500;29;19922;-72
2022/05/10 16:34:15;;;;;;;;;;;22.80;99.90;;;;;;4866885;29;20045;-72
2022/05/10 16:36:50;;;;;;;;;;;23.00;99.90;;;;;;4836407;29;19970;-73
2022/05/10 16:39:55;;;;;;;;;;;23.40;99.90;;;;;;4869520;29;19923;-72
2022/05/10 16:45:27;;;;;;;;;;;23.90;99.90;;;;;;4967538;28;19997;-73
2022/05/10 16:47:52;;;;;;;;;;;24.00;99.90;;;;;;4974198;28;20024;-72
2022/05/10 16:50:48;;;;;;;;;;;24.00;99.90;;;;;;4974674;28;20428;-73
2022/05/10 16:59:35;;;;;;;;;;;24.20;99.90;;;;;;4859546;29;19954;-73
2022/05/10 17:02:03;;;;;;;;;;;24.40;99.90;;;;;;4960045;28;19921;-72
2022/05/10 17:05:07;;;;;;;;;;;;;;;;;;;;;
2022/05/10 17:07:28;;;;;;;;;;;24.90;99.90;;;;;;5004428;28;20336;-73
2022/05/10 17:09:59;;;;;;;;;;;25.10;99.90;;;;;;5016518;28;19916;-72
2022/05/10 17:12:24;;;;;;;;;;;25.30;99.90;;;;;;4998619;28;19921;-73
2022/05/10 17:14:50;;;;;;;;;;;25.40;99.90;;;;;;5014548;28;19917;-73
2022/05/10 17:17:29;;;;;;;;;;;;;;;;;;;;;
2022/05/10 17:19:56;;;;;;;;;;;25.90;99.90;;;;;;4996936;28;19917;-72
2022/05/10 17:22:50;;;;;;;;;;;25.90;99.90;;;;;;5008454;28;20453;-71
2022/05/10 17:25:27;;;;;;;;;;;25.90;99.90;;;;;;5008992;28;20002;-71
2022/05/10 17:30:56;;;;;;;;;;;26.00;99.90;;;;;;5007129;28;19920;-71
2022/05/10 17:36:32;;;;;;;;;;;27.20;99.90;;;;;;5015532;28;20006;-72
2022/05/10 17:42:27;;;;;;;;;;;27.60;99.90;;;;;;4918416;29;20382;-72
2022/05/10 17:45:24;;;;;;;;;;;27.80;99.90;;;;;;4921571;29;19915;-72
2022/05/10 17:47:52;;;;;;;;;;;27.80;99.90;;;;;;4916669;29;19962;-71
2022/05/10 17:50:49;;;;;;;;;;;27.60;99.90;;;;;;4922268;29;19920;-70
2022/05/10 17:53:18;;;;;;;;;;;26.90;99.90;;;;;;4923834;29;19915;-70
2022/05/10 17:55:45;;;;;;;;;;;26.10;99.90;;;;;;4925053;28;20558;-72
2022/05/10 18:01:00;;;;;;;;;;;25.10;99.90;;;;;;4981747;28;19914;-71
2022/05/10 18:03:42;;;;;;;;;;;24.60;99.90;;;;;;5011820;28;19913;-72
2022/05/10 18:06:43;;;;;;;;;;;24.10;99.90;;;;;;5016085;28;19986;-73
2022/05/10 18:09:27;;;;;;;;;;;23.50;99.90;;;;;;5018068;28;19913;-72
2022/05/10 18:11:56;;;;;;;;;;;23.10;99.90;;;;;;5013816;28;20003;-73
2022/05/10 18:14:22;;;;;;;;;;;22.70;99.90;;;;;;5014006;28;20502;-72
2022/05/10 18:16:50;;;;;;;;;;;22.40;99.90;;;;;;5014449;28;20001;-72
2022/05/10 18:19:17;;;;;;;;;;;22.20;99.90;;;;;;4995624;28;19917;-70
2022/05/10 18:21:58;;;;;;;;;;;22.00;99.90;;;;;;5013618;28;19994;-71
2022/05/10 18:24:28;;;;;;;;;;;21.80;99.90;;;;;;5015135;28;19913;-72
2022/05/10 18:27:12;;;;;;;;;;;21.70;99.90;;;;;;4997471;28;19913;-74
2022/05/10 18:29:39;;;;;;;;;;;21.60;99.90;;;;;;5014636;28;20012;-72
2022/05/10 18:32:15;;;;;;;;;;;;;;;;;;;;;
2022/05/10 18:37:48;;;;;;;;;;;21.30;99.90;;;;;;4934008;29;20388;-72
2022/05/10 18:43:29;;;;;;;;;;;21.10;99.90;;;;;;4951246;29;19929;-72
2022/05/10 18:46:01;;;;;;;;;;;21.00;99.90;;;;;;4935675;29;19911;-72
2022/05/10 18:48:29;;;;;;;;;;;21.00;99.90;;;;;;4950358;28;20385;-72
2022/05/10 18:51:38;;;;;;;;;;;20.90;99.90;;;;;;5013855;28;19917;-72
2022/05/10 18:53:58;;;;;;;;;;;20.90;99.90;;;;;;5000564;28;19924;-72
2022/05/10 18:56:49;;;;;;;;;;;20.80;99.90;;;;;;5013811;28;19985;-72
2022/05/10 19:11:45;;;;;;;;;;;20.60;99.90;;;;;;4881509;29;19912;-80
2022/05/10 19:23:30;;;;;;;;;;;20.50;99.90;;;;;;4921684;29;19968;-77
2022/05/10 19:25:56;;;;;;;;;;;20.40;99.90;;;;;;4963823;28;19915;-77
2022/05/10 19:28:30;;;;;;;;;;;20.50;99.90;;;;;;4970544;28;19937;-78
2022/05/10 19:30:59;;;;;;;;;;;20.60;99.90;;;;;;5008167;28;19971;-77
2022/05/10 19:34:09;;;;;;;;;;;;;;;;;;;;;
2022/05/10 19:43:24;;;;;;;;;;;;;;;;;;;;;
2022/05/10 19:46:19;;;;;;;;;;;;;;;;;;;;;
2022/05/10 19:49:31;;;;;;;;;;;;;;;;;;;;;
2022/05/10 19:52:33;;;;;;;;;;;20.00;99.90;;;;;;4990331;28;19945;-78
2022/05/10 19:55:29;;;;;;;;;;;19.80;99.90;;;;;;4994790;28;19928;-78
2022/05/10 19:58:16;;;;;;;;;;;19.70;99.90;;;;;;4999881;28;20016;-76
2022/05/10 20:01:07;;;;;;;;;;;;;;;;;;;;;
2022/05/10 20:06:56;;;;;;;;;;;19.60;99.90;;;;;;5023536;28;19941;-77
2022/05/10 20:15:41;;;;;;;;;;;;;;;;;;;;;
2022/05/10 20:21:23;;;;;;;;;;;19.90;99.90;;;;;;5021997;28;19920;-77
2022/05/10 20:27:36;;;;;;;;;;;;;;;;;;;;;
2022/05/10 20:30:56;;;;;;;;;;;;;;;;;;;;;
2022/05/10 20:33:31;;;;;;;;;;;19.80;99.90;;;;;;4958044;28;19915;-78
2022/05/10 20:36:03;;;;;;;;;;;19.80;99.90;;;;;;4962888;28;19957;-77
2022/05/10 20:41:38;;;;;;;;;;;19.70;99.90;;;;;;5015546;28;19920;-78
2022/05/10 20:44:23;;;;;;;;;;;19.70;99.90;;;;;;5017344;28;19920;-76
2022/05/10 20:46:55;;;;;;;;;;;19.60;99.90;;;;;;5010527;28;19917;-78
2022/05/10 20:52:14;;;;;;;;;;;19.60;99.90;;;;;;5016361;28;19976;-78
2022/05/10 20:57:54;;;;;;;;;;;19.40;99.90;;;;;;5013159;28;20394;-77
2022/05/10 21:00:29;;;;;;;;;;;19.40;99.90;;;;;;5012973;28;19913;-79
2022/05/10 21:05:55;;;;;;;;;;;19.30;99.90;;;;;;5013382;28;19925;-78
2022/05/10 21:21:01;;;;;;;;;;;19.20;99.90;;;;;;4973323;28;19922;-78
2022/05/10 21:27:11;;;;;;;;;;;19.10;99.90;;;;;;4907416;29;20389;-75
2022/05/10 21:36:05;;;;;;;;;;;;;;;;;;;;;
2022/05/10 21:51:30;;;;;;;;;;;;;;;;;;;;;
2022/05/10 22:03:44;;;;;;;;;;;19.00;99.90;;;;;;4889069;29;19922;-78
2022/05/10 22:06:50;;;;;;;;;;;;;;;;;;;;;
2022/05/10 22:12:40;;;;;;;;;;;18.90;99.90;;;;;;4935306;29;19921;-78
2022/05/10 22:18:01;;;;;;;;;;;18.80;99.90;;;;;;5002050;28;19917;-78
2022/05/10 22:20:48;;;;;;;;;;;18.80;99.90;;;;;;4998228;28;19913;-78
2022/05/10 22:26:54;;;;;;;;;;;18.80;99.90;;;;;;5015059;28;19959;-79
2022/05/10 22:39:20;;;;;;;;;;;;;;;;;;;;;
2022/05/10 23:22:02;;;;;;;;;;;18.50;99.90;;;;;;4869817;29;20494;-80
2022/05/10 23:34:19;;;;;;;;;;;;;;;;;;;;;
2022/05/10 23:40:23;;;;;;;;;;;;;;;;;;;;;
